sensor_id;sensor_type;location;lat;lon;timestamp;P1;durP1;ratioP1;P2;durP2;ratioP2
4051;SDS011;2040;50.924;11.604;2024-02-04T00:00:30;0.90;;;0.80;;
4051;SDS011;2040;50.924;11.604;2024-02-04T00:02:55;1.83;;;1.20;;
4051;SDS011;2040;50.924;11.604;2024-02-04T00:05:21;0.90;;;0.90;;
4051;SDS011;2040;50.924;11.604;2024-02-04T00:07:47;1.43;;;0.80;;
4051;SDS011;2040;50.924;11.604;2024-02-04T00:10:12;1.10;;;1.00;;
4051;SDS011;2040;50.924;11.604;2024-02-04T00:12:40;4.20;;;1.40;;
4051;SDS011;2040;50.924;11.604;2024-02-04T00:15:05;1.80;;;1.23;;
4051;SDS011;2040;50.924;11.604;2024-02-04T00:17:31;1.20;;;1.10;;
4051;SDS011;2040;50.924;11.604;2024-02-04T00:19:59;1.30;;;1.17;;
4051;SDS011;2040;50.924;11.604;2024-02-04T00:22:25;1.13;;;1.03;;
4051;SDS011;2040;50.924;11.604;2024-02-04T00:24:50;1.53;;;1.20;;
4051;SDS011;2040;50.924;11.604;2024-02-04T00:27:16;1.97;;;1.20;;
4051;SDS011;2040;50.924;11.604;2024-02-04T00:29:41;1.20;;;1.10;;
4051;SDS011;2040;50.924;11.604;2024-02-04T00:32:07;1.20;;;1.10;;
4051;SDS011;2040;50.924;11.604;2024-02-04T00:34:32;1.37;;;1.00;;
4051;SDS011;2040;50.924;11.604;2024-02-04T00:36:58;2.00;;;1.67;;
4051;SDS011;2040;50.924;11.604;2024-02-04T00:39:25;3.50;;;1.70;;
4051;SDS011;2040;50.924;11.604;2024-02-04T00:41:50;1.53;;;1.20;;
4051;SDS011;2040;50.924;11.604;2024-02-04T00:44:16;2.13;;;1.60;;
4051;SDS011;2040;50.924;11.604;2024-02-04T00:46:41;1.20;;;1.10;;
4051;SDS011;2040;50.924;11.604;2024-02-04T00:49:07;3.03;;;1.67;;
4051;SDS011;2040;50.924;11.604;2024-02-04T00:51:33;4.80;;;1.67;;
4051;SDS011;2040;50.924;11.604;2024-02-04T00:53:58;2.43;;;1.70;;
4051;SDS011;2040;50.924;11.604;2024-02-04T00:56:24;1.30;;;1.20;;
4051;SDS011;2040;50.924;11.604;2024-02-04T00:58:49;1.73;;;1.43;;
4051;SDS011;2040;50.924;11.604;2024-02-04T01:01:15;1.80;;;1.40;;
4051;SDS011;2040;50.924;11.604;2024-02-04T01:03:40;1.63;;;1.20;;
4051;SDS011;2040;50.924;11.604;2024-02-04T01:06:06;1.50;;;1.07;;
4051;SDS011;2040;50.924;11.604;2024-02-04T01:08:31;2.17;;;1.17;;
4051;SDS011;2040;50.924;11.604;2024-02-04T01:10:59;1.20;;;1.07;;
4051;SDS011;2040;50.924;11.604;2024-02-04T01:13:25;1.60;;;1.30;;
4051;SDS011;2040;50.924;11.604;2024-02-04T01:15:50;2.03;;;1.07;;
4051;SDS011;2040;50.924;11.604;2024-02-04T01:18:16;1.53;;;1.17;;
4051;SDS011;2040;50.924;11.604;2024-02-04T01:20:41;1.50;;;1.40;;
4051;SDS011;2040;50.924;11.604;2024-02-04T01:23:07;1.17;;;1.03;;
4051;SDS011;2040;50.924;11.604;2024-02-04T01:25:33;1.40;;;1.13;;
4051;SDS011;2040;50.924;11.604;2024-02-04T01:27:59;1.00;;;1.00;;
4051;SDS011;2040;50.924;11.604;2024-02-04T01:30:24;1.77;;;1.30;;
4051;SDS011;2040;50.924;11.604;2024-02-04T01:32:50;5.10;;;1.50;;
4051;SDS011;2040;50.924;11.604;2024-02-04T01:35:15;0.90;;;0.90;;
4051;SDS011;2040;50.924;11.604;2024-02-04T01:37:41;1.10;;;1.03;;
4051;SDS011;2040;50.924;11.604;2024-02-04T01:40:08;1.57;;;1.30;;
4051;SDS011;2040;50.924;11.604;2024-02-04T01:42:34;1.83;;;1.07;;
4051;SDS011;2040;50.924;11.604;2024-02-04T01:45:00;1.37;;;1.27;;
4051;SDS011;2040;50.924;11.604;2024-02-04T01:47:25;1.43;;;1.17;;
4051;SDS011;2040;50.924;11.604;2024-02-04T01:49:51;2.63;;;0.97;;
4051;SDS011;2040;50.924;11.604;2024-02-04T01:52:16;1.13;;;1.00;;
4051;SDS011;2040;50.924;11.604;2024-02-04T01:54:42;1.13;;;1.07;;
4051;SDS011;2040;50.924;11.604;2024-02-04T01:57:09;2.23;;;1.50;;
4051;SDS011;2040;50.924;11.604;2024-02-04T01:59:35;0.90;;;0.80;;
4051;SDS011;2040;50.924;11.604;2024-02-04T02:02:06;1.30;;;1.00;;
4051;SDS011;2040;50.924;11.604;2024-02-04T02:04:32;1.90;;;1.20;;
4051;SDS011;2040;50.924;11.604;2024-02-04T02:06:58;4.80;;;1.00;;
4051;SDS011;2040;50.924;11.604;2024-02-04T02:09:27;2.50;;;1.33;;
4051;SDS011;2040;50.924;11.604;2024-02-04T02:12:07;3.03;;;1.07;;
4051;SDS011;2040;50.924;11.604;2024-02-04T02:14:38;1.83;;;1.47;;
4051;SDS011;2040;50.924;11.604;2024-02-04T02:17:08;1.30;;;1.20;;
4051;SDS011;2040;50.924;11.604;2024-02-04T02:20:26;2.10;;;1.33;;
4051;SDS011;2040;50.924;11.604;2024-02-04T02:22:49;1.80;;;1.20;;
4051;SDS011;2040;50.924;11.604;2024-02-04T02:25:25;2.40;;;0.90;;
4051;SDS011;2040;50.924;11.604;2024-02-04T02:27:52;2.10;;;1.30;;
4051;SDS011;2040;50.924;11.604;2024-02-04T02:30:19;1.90;;;1.40;;
4051;SDS011;2040;50.924;11.604;2024-02-04T02:32:45;3.10;;;1.67;;
4051;SDS011;2040;50.924;11.604;2024-02-04T02:35:13;1.70;;;1.10;;
4051;SDS011;2040;50.924;11.604;2024-02-04T02:37:53;1.47;;;1.13;;
4051;SDS011;2040;50.924;11.604;2024-02-04T02:40:58;1.20;;;0.93;;
4051;SDS011;2040;50.924;11.604;2024-02-04T02:43:23;1.20;;;1.10;;
4051;SDS011;2040;50.924;11.604;2024-02-04T02:45:49;2.00;;;1.20;;
4051;SDS011;2040;50.924;11.604;2024-02-04T02:48:15;1.83;;;1.23;;
4051;SDS011;2040;50.924;11.604;2024-02-04T02:50:41;2.27;;;1.50;;
4051;SDS011;2040;50.924;11.604;2024-02-04T02:53:07;2.63;;;1.33;;
4051;SDS011;2040;50.924;11.604;2024-02-04T02:55:32;2.53;;;1.40;;
4051;SDS011;2040;50.924;11.604;2024-02-04T02:57:58;1.87;;;1.60;;
4051;SDS011;2040;50.924;11.604;2024-02-04T03:00:23;2.37;;;1.60;;
4051;SDS011;2040;50.924;11.604;2024-02-04T03:02:49;1.27;;;1.17;;
4051;SDS011;2040;50.924;11.604;2024-02-04T03:05:15;2.20;;;1.37;;
4051;SDS011;2040;50.924;11.604;2024-02-04T03:11:03;1.77;;;1.10;;
4051;SDS011;2040;50.924;11.604;2024-02-04T03:13:28;1.27;;;1.10;;
4051;SDS011;2040;50.924;11.604;2024-02-04T03:15:55;1.60;;;1.50;;
4051;SDS011;2040;50.924;11.604;2024-02-04T03:18:20;6.60;;;1.30;;
4051;SDS011;2040;50.924;11.604;2024-02-04T03:20:46;2.00;;;1.20;;
4051;SDS011;2040;50.924;11.604;2024-02-04T03:23:12;2.87;;;1.60;;
4051;SDS011;2040;50.924;11.604;2024-02-04T03:25:37;1.70;;;1.20;;
4051;SDS011;2040;50.924;11.604;2024-02-04T03:28:03;1.87;;;1.43;;
4051;SDS011;2040;50.924;11.604;2024-02-04T03:30:29;2.53;;;1.60;;
4051;SDS011;2040;50.924;11.604;2024-02-04T03:32:55;3.43;;;1.80;;
4051;SDS011;2040;50.924;11.604;2024-02-04T03:35:20;12.43;;;1.40;;
4051;SDS011;2040;50.924;11.604;2024-02-04T03:37:46;2.00;;;1.53;;
4051;SDS011;2040;50.924;11.604;2024-02-04T03:40:11;1.13;;;1.03;;
4051;SDS011;2040;50.924;11.604;2024-02-04T03:42:37;1.53;;;1.20;;
4051;SDS011;2040;50.924;11.604;2024-02-04T03:45:03;2.50;;;1.63;;
4051;SDS011;2040;50.924;11.604;2024-02-04T03:47:29;1.10;;;1.00;;
4051;SDS011;2040;50.924;11.604;2024-02-04T03:49:55;1.93;;;1.37;;
4051;SDS011;2040;50.924;11.604;2024-02-04T03:52:20;1.70;;;1.33;;
4051;SDS011;2040;50.924;11.604;2024-02-04T03:54:46;2.13;;;1.70;;
4051;SDS011;2040;50.924;11.604;2024-02-04T03:57:11;1.33;;;1.13;;
4051;SDS011;2040;50.924;11.604;2024-02-04T03:59:37;1.73;;;1.17;;
4051;SDS011;2040;50.924;11.604;2024-02-04T04:02:02;1.23;;;0.80;;
4051;SDS011;2040;50.924;11.604;2024-02-04T04:04:28;3.33;;;0.97;;
4051;SDS011;2040;50.924;11.604;2024-02-04T04:06:53;2.50;;;1.73;;
4051;SDS011;2040;50.924;11.604;2024-02-04T04:09:19;2.93;;;1.20;;
4051;SDS011;2040;50.924;11.604;2024-02-04T04:11:44;4.33;;;1.03;;
4051;SDS011;2040;50.924;11.604;2024-02-04T04:14:10;1.23;;;1.13;;
4051;SDS011;2040;50.924;11.604;2024-02-04T04:16:35;0.90;;;0.90;;
4051;SDS011;2040;50.924;11.604;2024-02-04T04:19:01;2.40;;;1.13;;
4051;SDS011;2040;50.924;11.604;2024-02-04T04:21:27;1.10;;;0.70;;
4051;SDS011;2040;50.924;11.604;2024-02-04T04:23:52;1.90;;;1.17;;
4051;SDS011;2040;50.924;11.604;2024-02-04T04:26:18;1.20;;;1.10;;
4051;SDS011;2040;50.924;11.604;2024-02-04T04:28:43;1.20;;;1.00;;
4051;SDS011;2040;50.924;11.604;2024-02-04T04:31:09;1.57;;;1.40;;
4051;SDS011;2040;50.924;11.604;2024-02-04T04:33:35;1.67;;;1.27;;
4051;SDS011;2040;50.924;11.604;2024-02-04T04:36:01;1.33;;;1.23;;
4051;SDS011;2040;50.924;11.604;2024-02-04T04:38:27;1.80;;;1.20;;
4051;SDS011;2040;50.924;11.604;2024-02-04T04:40:53;3.00;;;1.53;;
4051;SDS011;2040;50.924;11.604;2024-02-04T04:43:18;1.23;;;1.00;;
4051;SDS011;2040;50.924;11.604;2024-02-04T04:45:44;1.43;;;1.23;;
4051;SDS011;2040;50.924;11.604;2024-02-04T04:48:09;1.20;;;1.10;;
4051;SDS011;2040;50.924;11.604;2024-02-04T04:50:35;2.37;;;1.30;;
4051;SDS011;2040;50.924;11.604;2024-02-04T04:53:01;1.57;;;0.90;;
4051;SDS011;2040;50.924;11.604;2024-02-04T04:55:26;0.80;;;0.80;;
4051;SDS011;2040;50.924;11.604;2024-02-04T04:57:52;1.27;;;1.17;;
4051;SDS011;2040;50.924;11.604;2024-02-04T05:00:17;1.33;;;1.10;;
4051;SDS011;2040;50.924;11.604;2024-02-04T05:02:43;1.47;;;1.00;;
4051;SDS011;2040;50.924;11.604;2024-02-04T05:05:12;0.93;;;0.87;;
4051;SDS011;2040;50.924;11.604;2024-02-04T05:07:37;0.77;;;0.70;;
4051;SDS011;2040;50.924;11.604;2024-02-04T05:10:03;0.80;;;0.80;;
4051;SDS011;2040;50.924;11.604;2024-02-04T05:12:29;0.90;;;0.73;;
4051;SDS011;2040;50.924;11.604;2024-02-04T05:14:55;0.90;;;0.90;;
4051;SDS011;2040;50.924;11.604;2024-02-04T05:17:21;0.80;;;0.80;;
4051;SDS011;2040;50.924;11.604;2024-02-04T05:19:47;0.87;;;0.87;;
4051;SDS011;2040;50.924;11.604;2024-02-04T05:22:12;0.70;;;0.70;;
4051;SDS011;2040;50.924;11.604;2024-02-04T05:24:38;0.60;;;0.60;;
4051;SDS011;2040;50.924;11.604;2024-02-04T05:27:03;0.80;;;0.60;;
4051;SDS011;2040;50.924;11.604;2024-02-04T05:29:30;4.93;;;0.60;;
4051;SDS011;2040;50.924;11.604;2024-02-04T05:31:58;0.60;;;0.60;;
4051;SDS011;2040;50.924;11.604;2024-02-04T05:34:23;0.50;;;0.50;;
4051;SDS011;2040;50.924;11.604;2024-02-04T05:36:49;0.70;;;0.60;;
4051;SDS011;2040;50.924;11.604;2024-02-04T05:39:16;0.53;;;0.53;;
4051;SDS011;2040;50.924;11.604;2024-02-04T05:41:42;0.60;;;0.60;;
4051;SDS011;2040;50.924;11.604;2024-02-04T05:44:08;1.20;;;0.60;;
4051;SDS011;2040;50.924;11.604;2024-02-04T05:46:36;0.60;;;0.60;;
4051;SDS011;2040;50.924;11.604;2024-02-04T05:49:03;0.60;;;0.50;;
4051;SDS011;2040;50.924;11.604;2024-02-04T05:51:30;0.77;;;0.60;;
4051;SDS011;2040;50.924;11.604;2024-02-04T05:53:56;0.40;;;0.40;;
4051;SDS011;2040;50.924;11.604;2024-02-04T05:56:22;0.50;;;0.50;;
4051;SDS011;2040;50.924;11.604;2024-02-04T05:58:47;0.40;;;0.40;;
4051;SDS011;2040;50.924;11.604;2024-02-04T06:01:13;0.63;;;0.60;;
4051;SDS011;2040;50.924;11.604;2024-02-04T06:03:41;0.50;;;0.50;;
4051;SDS011;2040;50.924;11.604;2024-02-04T06:06:07;0.50;;;0.50;;
4051;SDS011;2040;50.924;11.604;2024-02-04T06:08:32;0.80;;;0.63;;
4051;SDS011;2040;50.924;11.604;2024-02-04T06:10:58;0.87;;;0.50;;
4051;SDS011;2040;50.924;11.604;2024-02-04T06:13:23;0.60;;;0.53;;
4051;SDS011;2040;50.924;11.604;2024-02-04T06:15:49;0.50;;;0.50;;
4051;SDS011;2040;50.924;11.604;2024-02-04T06:18:14;0.40;;;0.40;;
4051;SDS011;2040;50.924;11.604;2024-02-04T06:20:40;0.43;;;0.43;;
4051;SDS011;2040;50.924;11.604;2024-02-04T06:23:06;0.40;;;0.40;;
4051;SDS011;2040;50.924;11.604;2024-02-04T06:25:31;0.50;;;0.50;;
4051;SDS011;2040;50.924;11.604;2024-02-04T06:27:57;0.40;;;0.40;;
4051;SDS011;2040;50.924;11.604;2024-02-04T06:30:25;0.50;;;0.50;;
4051;SDS011;2040;50.924;11.604;2024-02-04T06:32:50;0.60;;;0.60;;
4051;SDS011;2040;50.924;11.604;2024-02-04T06:35:16;0.43;;;0.43;;
4051;SDS011;2040;50.924;11.604;2024-02-04T06:37:41;0.63;;;0.63;;
4051;SDS011;2040;50.924;11.604;2024-02-04T06:40:10;0.40;;;0.40;;
4051;SDS011;2040;50.924;11.604;2024-02-04T06:42:36;0.53;;;0.53;;
4051;SDS011;2040;50.924;11.604;2024-02-04T06:45:01;0.50;;;0.50;;
4051;SDS011;2040;50.924;11.604;2024-02-04T06:47:27;0.80;;;0.57;;
4051;SDS011;2040;50.924;11.604;2024-02-04T06:49:52;0.47;;;0.47;;
4051;SDS011;2040;50.924;11.604;2024-02-04T06:52:18;0.40;;;0.40;;
4051;SDS011;2040;50.924;11.604;2024-02-04T06:54:44;0.40;;;0.40;;
4051;SDS011;2040;50.924;11.604;2024-02-04T06:57:09;0.50;;;0.50;;
4051;SDS011;2040;50.924;11.604;2024-02-04T06:59:35;0.57;;;0.50;;
4051;SDS011;2040;50.924;11.604;2024-02-04T07:02:00;0.40;;;0.40;;
4051;SDS011;2040;50.924;11.604;2024-02-04T07:04:26;0.40;;;0.40;;
4051;SDS011;2040;50.924;11.604;2024-02-04T07:06:51;0.50;;;0.50;;
4051;SDS011;2040;50.924;11.604;2024-02-04T07:09:17;0.50;;;0.50;;
4051;SDS011;2040;50.924;11.604;2024-02-04T07:11:43;0.40;;;0.40;;
4051;SDS011;2040;50.924;11.604;2024-02-04T07:14:08;0.40;;;0.40;;
4051;SDS011;2040;50.924;11.604;2024-02-04T07:16:34;0.40;;;0.40;;
4051;SDS011;2040;50.924;11.604;2024-02-04T07:18:59;0.50;;;0.50;;
4051;SDS011;2040;50.924;11.604;2024-02-04T07:21:25;10.33;;;0.60;;
4051;SDS011;2040;50.924;11.604;2024-02-04T07:23:50;0.60;;;0.60;;
4051;SDS011;2040;50.924;11.604;2024-02-04T07:26:16;0.40;;;0.40;;
4051;SDS011;2040;50.924;11.604;2024-02-04T07:28:41;0.53;;;0.53;;
4051;SDS011;2040;50.924;11.604;2024-02-04T07:31:07;0.57;;;0.57;;
4051;SDS011;2040;50.924;11.604;2024-02-04T07:33:33;2.90;;;0.60;;
4051;SDS011;2040;50.924;11.604;2024-02-04T07:35:58;0.40;;;0.40;;
4051;SDS011;2040;50.924;11.604;2024-02-04T07:38:24;0.60;;;0.60;;
4051;SDS011;2040;50.924;11.604;2024-02-04T07:40:49;1.70;;;0.93;;
4051;SDS011;2040;50.924;11.604;2024-02-04T07:43:15;0.40;;;0.40;;
4051;SDS011;2040;50.924;11.604;2024-02-04T07:45:41;0.63;;;0.63;;
4051;SDS011;2040;50.924;11.604;2024-02-04T07:48:07;0.43;;;0.43;;
4051;SDS011;2040;50.924;11.604;2024-02-04T07:50:34;0.40;;;0.40;;
4051;SDS011;2040;50.924;11.604;2024-02-04T07:52:59;0.50;;;0.50;;
4051;SDS011;2040;50.924;11.604;2024-02-04T07:55:25;0.70;;;0.70;;
4051;SDS011;2040;50.924;11.604;2024-02-04T07:57:51;0.53;;;0.53;;
4051;SDS011;2040;50.924;11.604;2024-02-04T08:00:16;0.70;;;0.60;;
4051;SDS011;2040;50.924;11.604;2024-02-04T08:02:43;0.70;;;0.70;;
4051;SDS011;2040;50.924;11.604;2024-02-04T08:05:10;0.80;;;0.50;;
4051;SDS011;2040;50.924;11.604;2024-02-04T08:07:35;0.50;;;0.50;;
4051;SDS011;2040;50.924;11.604;2024-02-04T08:10:01;0.50;;;0.50;;
4051;SDS011;2040;50.924;11.604;2024-02-04T08:12:26;0.70;;;0.70;;
4051;SDS011;2040;50.924;11.604;2024-02-04T08:14:52;0.50;;;0.50;;
4051;SDS011;2040;50.924;11.604;2024-02-04T08:17:18;0.60;;;0.60;;
4051;SDS011;2040;50.924;11.604;2024-02-04T08:19:43;0.77;;;0.73;;
4051;SDS011;2040;50.924;11.604;2024-02-04T08:22:09;0.70;;;0.70;;
4051;SDS011;2040;50.924;11.604;2024-02-04T08:24:34;0.77;;;0.70;;
4051;SDS011;2040;50.924;11.604;2024-02-04T08:27:01;0.70;;;0.70;;
4051;SDS011;2040;50.924;11.604;2024-02-04T08:29:26;0.90;;;0.60;;
4051;SDS011;2040;50.924;11.604;2024-02-04T08:31:52;0.67;;;0.67;;
4051;SDS011;2040;50.924;11.604;2024-02-04T08:34:18;1.10;;;0.50;;
4051;SDS011;2040;50.924;11.604;2024-02-04T08:36:45;0.63;;;0.57;;
4051;SDS011;2040;50.924;11.604;2024-02-04T08:39:11;0.97;;;0.70;;
4051;SDS011;2040;50.924;11.604;2024-02-04T08:41:36;1.00;;;0.60;;
4051;SDS011;2040;50.924;11.604;2024-02-04T08:44:02;0.87;;;0.50;;
4051;SDS011;2040;50.924;11.604;2024-02-04T08:46:27;0.50;;;0.50;;
4051;SDS011;2040;50.924;11.604;2024-02-04T08:48:53;0.63;;;0.50;;
4051;SDS011;2040;50.924;11.604;2024-02-04T08:51:18;0.60;;;0.50;;
4051;SDS011;2040;50.924;11.604;2024-02-04T08:53:44;0.60;;;0.60;;
4051;SDS011;2040;50.924;11.604;2024-02-04T08:56:10;0.60;;;0.60;;
4051;SDS011;2040;50.924;11.604;2024-02-04T08:58:35;0.50;;;0.50;;
4051;SDS011;2040;50.924;11.604;2024-02-04T09:01:02;0.40;;;0.40;;
4051;SDS011;2040;50.924;11.604;2024-02-04T09:03:29;0.73;;;0.73;;
4051;SDS011;2040;50.924;11.604;2024-02-04T09:05:54;0.50;;;0.50;;
4051;SDS011;2040;50.924;11.604;2024-02-04T09:08:20;0.73;;;0.50;;
4051;SDS011;2040;50.924;11.604;2024-02-04T09:10:46;0.50;;;0.50;;
4051;SDS011;2040;50.924;11.604;2024-02-04T09:13:11;0.67;;;0.60;;
4051;SDS011;2040;50.924;11.604;2024-02-04T09:15:37;0.83;;;0.50;;
4051;SDS011;2040;50.924;11.604;2024-02-04T09:18:02;0.50;;;0.50;;
4051;SDS011;2040;50.924;11.604;2024-02-04T09:20:28;0.40;;;0.40;;
4051;SDS011;2040;50.924;11.604;2024-02-04T09:22:54;0.80;;;0.70;;
4051;SDS011;2040;50.924;11.604;2024-02-04T09:25:19;0.97;;;0.87;;
4051;SDS011;2040;50.924;11.604;2024-02-04T09:27:45;0.70;;;0.70;;
4051;SDS011;2040;50.924;11.604;2024-02-04T09:30:10;0.57;;;0.50;;
4051;SDS011;2040;50.924;11.604;2024-02-04T09:32:36;0.90;;;0.77;;
4051;SDS011;2040;50.924;11.604;2024-02-04T09:35:02;5.33;;;0.80;;
4051;SDS011;2040;50.924;11.604;2024-02-04T09:37:29;1.37;;;1.00;;
4051;SDS011;2040;50.924;11.604;2024-02-04T09:39:54;1.17;;;1.07;;
4051;SDS011;2040;50.924;11.604;2024-02-04T09:42:20;1.00;;;0.80;;
4051;SDS011;2040;50.924;11.604;2024-02-04T09:44:48;1.90;;;1.03;;
4051;SDS011;2040;50.924;11.604;2024-02-04T09:47:14;0.90;;;0.80;;
4051;SDS011;2040;50.924;11.604;2024-02-04T09:49:40;2.30;;;1.10;;
4051;SDS011;2040;50.924;11.604;2024-02-04T09:52:09;1.10;;;0.90;;
4051;SDS011;2040;50.924;11.604;2024-02-04T09:54:38;1.00;;;0.90;;
4051;SDS011;2040;50.924;11.604;2024-02-04T09:57:14;1.37;;;0.97;;
4051;SDS011;2040;50.924;11.604;2024-02-04T09:59:41;1.60;;;1.50;;
4051;SDS011;2040;50.924;11.604;2024-02-04T10:02:08;1.03;;;0.93;;
4051;SDS011;2040;50.924;11.604;2024-02-04T10:04:34;1.43;;;1.20;;
4051;SDS011;2040;50.924;11.604;2024-02-04T10:07:00;1.47;;;1.10;;
4051;SDS011;2040;50.924;11.604;2024-02-04T10:09:26;3.80;;;2.00;;
4051;SDS011;2040;50.924;11.604;2024-02-04T10:11:52;4.33;;;1.37;;
4051;SDS011;2040;50.924;11.604;2024-02-04T10:14:18;3.13;;;1.43;;
4051;SDS011;2040;50.924;11.604;2024-02-04T10:16:45;1.20;;;1.10;;
4051;SDS011;2040;50.924;11.604;2024-02-04T10:19:11;1.60;;;1.10;;
4051;SDS011;2040;50.924;11.604;2024-02-04T10:21:37;1.27;;;1.17;;
4051;SDS011;2040;50.924;11.604;2024-02-04T10:24:02;0.80;;;0.80;;
4051;SDS011;2040;50.924;11.604;2024-02-04T10:26:28;0.60;;;0.60;;
4051;SDS011;2040;50.924;11.604;2024-02-04T10:28:59;1.00;;;0.90;;
4051;SDS011;2040;50.924;11.604;2024-02-04T10:31:26;1.27;;;1.17;;
4051;SDS011;2040;50.924;11.604;2024-02-04T10:33:52;2.90;;;1.00;;
4051;SDS011;2040;50.924;11.604;2024-02-04T10:36:19;2.90;;;1.10;;
4051;SDS011;2040;50.924;11.604;2024-02-04T10:38:45;1.00;;;0.87;;
4051;SDS011;2040;50.924;11.604;2024-02-04T10:41:14;0.90;;;0.90;;
4051;SDS011;2040;50.924;11.604;2024-02-04T10:43:41;0.77;;;0.77;;
4051;SDS011;2040;50.924;11.604;2024-02-04T10:46:12;2.70;;;0.90;;
4051;SDS011;2040;50.924;11.604;2024-02-04T10:48:42;0.93;;;0.70;;
4051;SDS011;2040;50.924;11.604;2024-02-04T10:51:14;0.60;;;0.60;;
4051;SDS011;2040;50.924;11.604;2024-02-04T10:53:43;10.43;;;1.00;;
4051;SDS011;2040;50.924;11.604;2024-02-04T10:56:25;0.80;;;0.80;;
4051;SDS011;2040;50.924;11.604;2024-02-04T10:59:02;0.70;;;0.70;;
4051;SDS011;2040;50.924;11.604;2024-02-04T11:01:29;1.00;;;0.80;;
4051;SDS011;2040;50.924;11.604;2024-02-04T11:03:55;0.93;;;0.83;;
4051;SDS011;2040;50.924;11.604;2024-02-04T11:06:22;0.93;;;0.80;;
4051;SDS011;2040;50.924;11.604;2024-02-04T11:08:48;1.50;;;0.80;;
4051;SDS011;2040;50.924;11.604;2024-02-04T11:11:16;0.73;;;0.60;;
4051;SDS011;2040;50.924;11.604;2024-02-04T11:13:45;0.80;;;0.70;;
4051;SDS011;2040;50.924;11.604;2024-02-04T11:16:31;1.10;;;0.87;;
4051;SDS011;2040;50.924;11.604;2024-02-04T11:19:13;1.63;;;0.70;;
4051;SDS011;2040;50.924;11.604;2024-02-04T11:24:47;2.07;;;1.53;;
4051;SDS011;2040;50.924;11.604;2024-02-04T11:27:24;1.37;;;0.90;;
4051;SDS011;2040;50.924;11.604;2024-02-04T11:29:51;2.40;;;1.20;;
4051;SDS011;2040;50.924;11.604;2024-02-04T11:32:17;0.70;;;0.70;;
4051;SDS011;2040;50.924;11.604;2024-02-04T11:34:44;0.60;;;0.60;;
4051;SDS011;2040;50.924;11.604;2024-02-04T11:37:16;1.73;;;1.30;;
4051;SDS011;2040;50.924;11.604;2024-02-04T11:39:53;1.33;;;0.70;;
4051;SDS011;2040;50.924;11.604;2024-02-04T11:42:23;1.50;;;1.17;;
4051;SDS011;2040;50.924;11.604;2024-02-04T11:44:49;1.90;;;1.33;;
4051;SDS011;2040;50.924;11.604;2024-02-04T11:47:25;0.83;;;0.83;;
4051;SDS011;2040;50.924;11.604;2024-02-04T11:49:54;1.17;;;0.87;;
4051;SDS011;2040;50.924;11.604;2024-02-04T11:52:23;1.90;;;0.97;;
4051;SDS011;2040;50.924;11.604;2024-02-04T11:54:51;1.63;;;1.00;;
4051;SDS011;2040;50.924;11.604;2024-02-04T11:57:17;1.10;;;0.90;;
4051;SDS011;2040;50.924;11.604;2024-02-04T11:59:43;0.80;;;0.73;;
4051;SDS011;2040;50.924;11.604;2024-02-04T12:02:09;1.20;;;0.90;;
4051;SDS011;2040;50.924;11.604;2024-02-04T12:04:37;0.70;;;0.70;;
4051;SDS011;2040;50.924;11.604;2024-02-04T12:07:04;0.60;;;0.60;;
4051;SDS011;2040;50.924;11.604;2024-02-04T12:09:30;0.83;;;0.83;;
4051;SDS011;2040;50.924;11.604;2024-02-04T12:11:59;0.90;;;0.73;;
4051;SDS011;2040;50.924;11.604;2024-02-04T12:14:25;1.13;;;0.90;;
4051;SDS011;2040;50.924;11.604;2024-02-04T12:16:52;0.80;;;0.80;;
4051;SDS011;2040;50.924;11.604;2024-02-04T12:19:17;0.73;;;0.73;;
4051;SDS011;2040;50.924;11.604;2024-02-04T12:21:43;1.20;;;0.77;;
4051;SDS011;2040;50.924;11.604;2024-02-04T12:24:09;0.60;;;0.60;;
4051;SDS011;2040;50.924;11.604;2024-02-04T12:26:35;0.60;;;0.60;;
4051;SDS011;2040;50.924;11.604;2024-02-04T12:29:00;0.80;;;0.70;;
4051;SDS011;2040;50.924;11.604;2024-02-04T12:31:28;0.70;;;0.57;;
4051;SDS011;2040;50.924;11.604;2024-02-04T12:34:00;0.70;;;0.70;;
4051;SDS011;2040;50.924;11.604;2024-02-04T12:36:32;0.80;;;0.80;;
4051;SDS011;2040;50.924;11.604;2024-02-04T12:38:59;4.10;;;1.33;;
4051;SDS011;2040;50.924;11.604;2024-02-04T12:41:29;0.73;;;0.73;;
4051;SDS011;2040;50.924;11.604;2024-02-04T12:43:55;0.70;;;0.70;;
4051;SDS011;2040;50.924;11.604;2024-02-04T12:46:23;1.47;;;0.70;;
4051;SDS011;2040;50.924;11.604;2024-02-04T12:48:52;1.10;;;1.00;;
4051;SDS011;2040;50.924;11.604;2024-02-04T12:51:25;1.53;;;0.90;;
4051;SDS011;2040;50.924;11.604;2024-02-04T12:54:05;0.93;;;0.80;;
4051;SDS011;2040;50.924;11.604;2024-02-04T12:59:12;1.67;;;0.70;;
4051;SDS011;2040;50.924;11.604;2024-02-04T13:01:54;0.77;;;0.77;;
4051;SDS011;2040;50.924;11.604;2024-02-04T13:04:20;0.70;;;0.50;;
4051;SDS011;2040;50.924;11.604;2024-02-04T13:06:46;1.03;;;0.77;;
4051;SDS011;2040;50.924;11.604;2024-02-04T13:09:14;1.93;;;1.03;;
4051;SDS011;2040;50.924;11.604;2024-02-04T13:11:41;0.50;;;0.50;;
4051;SDS011;2040;50.924;11.604;2024-02-04T13:14:07;1.37;;;0.80;;
4051;SDS011;2040;50.924;11.604;2024-02-04T13:16:32;0.97;;;0.83;;
4051;SDS011;2040;50.924;11.604;2024-02-04T13:19:00;0.70;;;0.63;;
4051;SDS011;2040;50.924;11.604;2024-02-04T13:21:26;0.70;;;0.70;;
4051;SDS011;2040;50.924;11.604;2024-02-04T13:23:53;0.67;;;0.60;;
4051;SDS011;2040;50.924;11.604;2024-02-04T13:26:18;0.87;;;0.73;;
4051;SDS011;2040;50.924;11.604;2024-02-04T13:28:44;0.40;;;0.40;;
4051;SDS011;2040;50.924;11.604;2024-02-04T13:31:10;0.60;;;0.50;;
4051;SDS011;2040;50.924;11.604;2024-02-04T13:33:38;0.80;;;0.80;;
4051;SDS011;2040;50.924;11.604;2024-02-04T13:36:04;1.10;;;1.00;;
4051;SDS011;2040;50.924;11.604;2024-02-04T13:38:31;2.10;;;1.60;;
4051;SDS011;2040;50.924;11.604;2024-02-04T13:40:56;0.60;;;0.60;;
4051;SDS011;2040;50.924;11.604;2024-02-04T13:43:22;0.60;;;0.50;;
4051;SDS011;2040;50.924;11.604;2024-02-04T13:45:47;0.60;;;0.60;;
4051;SDS011;2040;50.924;11.604;2024-02-04T13:48:13;1.20;;;1.00;;
4051;SDS011;2040;50.924;11.604;2024-02-04T13:50:38;1.87;;;1.40;;
4051;SDS011;2040;50.924;11.604;2024-02-04T13:53:04;1.13;;;0.90;;
4051;SDS011;2040;50.924;11.604;2024-02-04T13:55:30;0.87;;;0.87;;
4051;SDS011;2040;50.924;11.604;2024-02-04T13:57:55;1.23;;;0.90;;
4051;SDS011;2040;50.924;11.604;2024-02-04T14:00:21;0.90;;;0.70;;
4051;SDS011;2040;50.924;11.604;2024-02-04T14:02:46;1.17;;;0.93;;
4051;SDS011;2040;50.924;11.604;2024-02-04T14:05:12;1.23;;;0.83;;
4051;SDS011;2040;50.924;11.604;2024-02-04T14:07:37;0.70;;;0.70;;
4051;SDS011;2040;50.924;11.604;2024-02-04T14:10:03;7.17;;;0.97;;
4051;SDS011;2040;50.924;11.604;2024-02-04T14:12:29;0.80;;;0.80;;
4051;SDS011;2040;50.924;11.604;2024-02-04T14:14:55;1.10;;;1.00;;
4051;SDS011;2040;50.924;11.604;2024-02-04T14:17:20;1.03;;;0.90;;
4051;SDS011;2040;50.924;11.604;2024-02-04T14:19:46;0.70;;;0.70;;
4051;SDS011;2040;50.924;11.604;2024-02-04T14:22:14;1.13;;;1.00;;
4051;SDS011;2040;50.924;11.604;2024-02-04T14:24:42;1.10;;;1.00;;
4051;SDS011;2040;50.924;11.604;2024-02-04T14:27:07;1.07;;;0.70;;
4051;SDS011;2040;50.924;11.604;2024-02-04T14:29:33;1.30;;;1.00;;
4051;SDS011;2040;50.924;11.604;2024-02-04T14:31:59;1.47;;;1.20;;
4051;SDS011;2040;50.924;11.604;2024-02-04T14:34:25;0.70;;;0.70;;
4051;SDS011;2040;50.924;11.604;2024-02-04T14:36:52;1.43;;;1.10;;
4051;SDS011;2040;50.924;11.604;2024-02-04T14:39:17;0.70;;;0.70;;
4051;SDS011;2040;50.924;11.604;2024-02-04T14:41:43;1.20;;;0.90;;
4051;SDS011;2040;50.924;11.604;2024-02-04T14:44:08;0.53;;;0.50;;
4051;SDS011;2040;50.924;11.604;2024-02-04T14:46:35;0.73;;;0.73;;
4051;SDS011;2040;50.924;11.604;2024-02-04T14:49:02;0.50;;;0.50;;
4051;SDS011;2040;50.924;11.604;2024-02-04T14:51:29;1.33;;;0.90;;
4051;SDS011;2040;50.924;11.604;2024-02-04T14:53:56;1.43;;;0.70;;
4051;SDS011;2040;50.924;11.604;2024-02-04T14:56:22;0.87;;;0.70;;
4051;SDS011;2040;50.924;11.604;2024-02-04T14:58:48;0.77;;;0.73;;
4051;SDS011;2040;50.924;11.604;2024-02-04T15:01:14;0.90;;;0.60;;
4051;SDS011;2040;50.924;11.604;2024-02-04T15:03:40;0.87;;;0.87;;
4051;SDS011;2040;50.924;11.604;2024-02-04T15:06:06;0.50;;;0.50;;